Time;durP1;ratioP1;P1;durP2;ratioP2;P2;SDS_P1;SDS_P2;PMS_P1;PMS_P2;Temp;Humidity;BMP_temperature;BMP_pressure;BME280_temperature;BME280_humidity;BME280_pressure;Samples;Min_cycle;Max_cycle;Signal;HPM_P1;HPM_P2
2021/11/11 00:01:50;;;;;;;8.07;4.80;;;1.10;99.90;;;;;;6155960;23;20167;-77
2021/11/11 00:04:19;;;;;;;7.43;4.33;;;1.00;99.90;;;;;;6155543;23;20187;-78
2021/11/11 00:06:46;;;;;;;6.93;4.47;;;1.00;99.90;;;;;;6156166;23;20159;-77
2021/11/11 00:09:11;;;;;;;6.23;4.33;;;0.90;99.90;;;;;;6181396;23;20191;-77
2021/11/11 00:11:37;;;;;;;9.10;4.53;;;0.80;99.90;;;;;;6156183;23;20170;-78
2021/11/11 00:14:03;;;;;;;7.83;5.10;;;0.90;99.90;;;;;;6182598;23;20849;-77
2021/11/11 00:16:28;;;;;;;6.90;4.50;;;0.90;99.90;;;;;;6156744;23;20167;-77
2021/11/11 00:18:54;;;;;;;6.90;4.50;;;0.90;99.90;;;;;;6155143;23;20178;-77
2021/11/11 00:21:20;;;;;;;7.70;5.07;;;0.80;99.90;;;;;;6155636;23;20171;-80
2021/11/11 00:23:46;;;;;;;6.37;4.27;;;0.80;99.90;;;;;;6182590;23;20206;-77
2021/11/11 00:26:12;;;;;;;7.23;4.13;;;0.80;99.90;;;;;;6181914;23;20716;-80
2021/11/11 00:28:37;;;;;;;6.77;4.77;;;0.80;99.90;;;;;;6183217;23;20167;-81
2021/11/11 00:31:04;;;;;;;7.50;4.30;;;0.90;99.90;;;;;;6156734;23;20170;-78
2021/11/11 00:33:29;;;;;;;5.87;4.30;;;0.80;99.90;;;;;;6183376;23;20178;-79
2021/11/11 00:35:55;;;;;;;5.17;4.20;;;0.90;99.90;;;;;;6182760;23;20158;-77
2021/11/11 00:38:21;;;;;;;5.67;4.37;;;0.80;99.90;;;;;;6155677;23;20802;-77
2021/11/11 00:40:46;;;;;;;6.10;4.47;;;0.70;99.90;;;;;;6183540;23;20178;-82
2021/11/11 00:43:12;;;;;;;7.43;4.57;;;0.70;99.90;;;;;;6156899;23;20241;-77
2021/11/11 00:45:38;;;;;;;5.20;4.00;;;0.70;99.90;;;;;;6156171;23;20193;-77
2021/11/11 00:48:05;;;;;;;6.60;4.40;;;0.60;99.90;;;;;;6156117;23;20171;-79
2021/11/11 00:50:32;;;;;;;7.43;4.53;;;0.70;99.90;;;;;;6156210;23;20607;-79
2021/11/11 00:52:59;;;;;;;9.53;4.23;;;0.80;99.90;;;;;;6156209;23;20163;-79
2021/11/11 00:55:25;;;;;;;5.30;4.50;;;0.70;99.90;;;;;;6182875;23;20166;-77
2021/11/11 00:57:51;;;;;;;6.13;4.50;;;0.70;99.90;;;;;;6155681;23;20163;-78
2021/11/11 01:00:18;;;;;;;6.27;4.00;;;0.60;99.90;;;;;;6182362;23;20574;-79
2021/11/11 01:02:46;;;;;;;4.60;3.80;;;0.70;99.90;;;;;;6182405;23;20166;-79
2021/11/11 01:05:12;;;;;;;5.47;4.10;;;0.60;99.90;;;;;;6156434;23;20258;-78
2021/11/11 01:07:38;;;;;;;5.77;4.40;;;0.50;99.90;;;;;;6182882;23;20182;-78
2021/11/11 01:10:09;;;;;;;5.63;4.10;;;0.50;99.90;;;;;;6156230;23;20202;-78
2021/11/11 01:12:35;;;;;;;6.20;4.17;;;0.50;99.90;;;;;;6156820;23;20150;-77
2021/11/11 01:15:02;;;;;;;6.13;4.80;;;0.50;99.90;;;;;;6155512;23;20167;-82
2021/11/11 01:17:27;;;;;;;4.90;4.40;;;0.40;99.90;;;;;;6182364;23;20175;-79
2021/11/11 01:19:53;;;;;;;6.10;4.33;;;0.40;99.90;;;;;;6157078;23;20577;-79
2021/11/11 01:22:19;;;;;;;9.20;5.83;;;0.50;99.90;;;;;;6182836;23;20162;-77
2021/11/11 01:24:44;;;;;;;5.33;4.13;;;0.50;99.90;;;;;;6156215;23;20232;-80
2021/11/11 01:27:10;;;;;;;5.57;4.07;;;0.60;99.90;;;;;;6183080;23;20154;-79
2021/11/11 01:29:36;;;;;;;5.90;4.80;;;0.50;99.90;;;;;;6155817;23;20740;-78
2021/11/11 01:32:02;;;;;;;7.33;4.33;;;0.50;99.90;;;;;;6183131;23;20144;-80
2021/11/11 01:34:28;;;;;;;8.23;4.63;;;0.60;99.90;;;;;;6182217;23;20904;-79
2021/11/11 01:36:55;;;;;;;7.50;4.90;;;0.50;99.90;;;;;;6183562;23;20181;-77
2021/11/11 01:39:21;;;;;;;6.67;5.10;;;0.50;99.90;;;;;;6156324;23;20193;-78
2021/11/11 01:41:47;;;;;;;7.73;5.10;;;0.50;99.90;;;;;;6184312;23;20155;-79
2021/11/11 01:44:15;;;;;;;8.07;5.37;;;0.50;99.90;;;;;;6157498;23;20190;-78
2021/11/11 01:46:41;;;;;;;6.87;4.73;;;0.40;99.90;;;;;;6184044;23;20646;-77
2021/11/11 01:49:06;;;;;;;6.77;5.30;;;0.40;99.90;;;;;;6157989;23;20191;-78
2021/11/11 01:51:32;;;;;;;7.70;5.37;;;0.40;99.90;;;;;;6157288;23;20229;-78
2021/11/11 01:53:58;;;;;;;6.83;4.80;;;0.40;99.90;;;;;;6157946;23;20163;-79
2021/11/11 01:56:24;;;;;;;7.33;5.03;;;0.40;99.90;;;;;;6185521;23;20163;-78
2021/11/11 01:58:50;;;;;;;8.50;5.20;;;0.30;99.90;;;;;;6158875;23;20183;-77
2021/11/11 02:01:18;;;;;;;7.50;4.83;;;0.30;99.90;;;;;;6158045;23;20163;-77
2021/11/11 02:03:45;;;;;;;6.30;4.90;;;0.20;99.90;;;;;;6158434;23;20595;-79
2021/11/11 02:06:11;;;;;;;6.27;4.57;;;0.20;99.90;;;;;;6185698;23;20181;-77
2021/11/11 02:08:37;;;;;;;5.30;4.47;;;0.20;99.90;;;;;;6157964;23;20179;-78
2021/11/11 02:11:03;;;;;;;6.20;4.97;;;0.10;99.90;;;;;;6184509;23;20166;-77
2021/11/11 02:13:29;;;;;;;6.60;4.93;;;0.10;99.90;;;;;;6184299;23;20147;-77
2021/11/11 02:15:55;;;;;;;8.13;4.80;;;0.20;99.90;;;;;;6157408;23;20162;-80
2021/11/11 02:18:20;;;;;;;7.70;5.10;;;0.20;99.90;;;;;;6157767;23;20183;-78
2021/11/11 02:20:46;;;;;;;6.53;4.60;;;0.10;99.90;;;;;;6157670;23;20216;-78
2021/11/11 02:23:15;;;;;;;7.50;5.13;;;0.10;99.90;;;;;;6183972;23;20182;-77
2021/11/11 02:25:43;;;;;;;6.80;4.83;;;0.10;99.90;;;;;;6157766;23;20183;-78
2021/11/11 02:28:13;;;;;;;8.20;5.57;;;0.00;99.90;;;;;;6184070;23;20159;-79
2021/11/11 02:30:46;;;;;;;6.03;4.93;;;0.00;99.90;;;;;;6157151;23;20151;-78
2021/11/11 02:33:15;;;;;;;6.17;4.63;;;0.00;99.90;;;;;;6183252;23;20575;-78
2021/11/11 02:35:41;;;;;;;6.30;4.77;;;0.10;99.90;;;;;;6182337;23;20155;-78
2021/11/11 02:38:07;;;;;;;6.10;4.57;;;0.00;99.90;;;;;;6152866;23;20218;-78
2021/11/11 02:40:34;;;;;;;7.30;5.30;;;-0.10;99.90;;;;;;6155677;23;20214;-79
2021/11/11 02:43:00;;;;;;;6.13;4.40;;;-0.20;99.90;;;;;;6156383;23;20242;-79
2021/11/11 02:45:28;;;;;;;7.30;4.97;;;-0.20;99.90;;;;;;6156450;23;20705;-78
2021/11/11 02:47:56;;;;;;;6.83;5.00;;;-0.30;99.90;;;;;;6156130;23;20198;-77
2021/11/11 02:50:22;;;;;;;6.40;4.97;;;-0.30;99.90;;;;;;6182049;23;20155;-77
2021/11/11 02:52:50;;;;;;;6.43;4.63;;;-0.20;99.90;;;;;;6182497;23;20151;-78
2021/11/11 02:55:16;;;;;;;6.40;4.90;;;-0.20;99.90;;;;;;6182877;23;20159;-81
2021/11/11 02:57:43;;;;;;;7.30;4.70;;;-0.30;99.90;;;;;;6156558;23;20163;-80
2021/11/11 03:00:23;;;;;;;7.23;5.03;;;-0.20;99.90;;;;;;6182653;23;20267;-77
2021/11/11 03:02:49;;;;;;;9.77;6.17;;;-0.10;99.90;;;;;;6183441;23;20599;-80
2021/11/11 03:05:20;;;;;;;9.33;4.87;;;-0.10;99.90;;;;;;6156261;23;20556;-78
2021/11/11 03:07:46;;;;;;;9.33;5.60;;;-0.10;99.90;;;;;;6183374;23;20226;-79
2021/11/11 03:10:17;;;;;;;8.10;5.73;;;-0.20;99.90;;;;;;6156330;23;20190;-78
2021/11/11 03:12:43;;;;;;;7.03;5.30;;;-0.20;99.90;;;;;;6156437;23;20151;-79
2021/11/11 03:15:11;;;;;;;8.70;5.93;;;-0.20;99.90;;;;;;6156443;23;20162;-78
2021/11/11 03:17:38;;;;;;;11.00;6.60;;;-0.10;99.90;;;;;;6183008;23;20184;-77
2021/11/11 03:20:05;;;;;;;8.67;5.80;;;0.00;99.90;;;;;;6156418;23;20674;-76
2021/11/11 03:22:31;;;;;;;9.00;6.43;;;0.00;99.90;;;;;;6182086;23;20155;-77
2021/11/11 03:24:59;;;;;;;9.03;6.47;;;0.00;99.90;;;;;;6155451;23;20528;-77
2021/11/11 03:27:25;;;;;;;9.17;6.37;;;-0.10;99.90;;;;;;6181982;23;20536;-80
2021/11/11 03:29:52;;;;;;;8.67;6.33;;;-0.10;99.90;;;;;;6182977;23;20203;-77
2021/11/11 03:32:19;;;;;;;9.60;6.43;;;0.00;99.90;;;;;;6156079;23;20167;-78
2021/11/11 03:34:45;;;;;;;10.37;5.43;;;0.00;99.90;;;;;;6183272;23;20162;-76
2021/11/11 03:37:12;;;;;;;9.30;6.77;;;0.00;99.90;;;;;;6183002;23;20171;-80
2021/11/11 03:39:38;;;;;;;8.47;6.03;;;0.00;99.90;;;;;;6155637;23;20189;-77
2021/11/11 03:42:08;;;;;;;7.73;5.93;;;0.20;99.90;;;;;;6183032;23;20163;-78
2021/11/11 03:44:34;;;;;;;8.70;5.80;;;0.10;99.90;;;;;;6156127;23;20646;-79
2021/11/11 03:47:01;;;;;;;7.67;5.30;;;0.10;99.90;;;;;;6156091;23;20166;-76
2021/11/11 03:49:27;;;;;;;9.03;5.57;;;0.00;99.90;;;;;;6182658;23;20273;-78
2021/11/11 03:51:54;;;;;;;9.77;6.27;;;-0.10;99.90;;;;;;6182243;23;20155;-78
2021/11/11 03:54:21;;;;;;;9.33;5.87;;;-0.10;99.90;;;;;;6155845;23;20163;-79
2021/11/11 03:56:48;;;;;;;8.63;5.60;;;-0.10;99.90;;;;;;6156269;23;20162;-77
2021/11/11 03:59:15;;;;;;;10.33;6.20;;;0.00;99.90;;;;;;6155051;23;20280;-79
2021/11/11 04:01:42;;;;;;;8.57;6.27;;;0.00;99.90;;;;;;6181602;23;20155;-80
2021/11/11 04:04:08;;;;;;;8.60;5.80;;;-0.10;99.90;;;;;;6153812;23;20179;-81
2021/11/11 04:06:34;;;;;;;8.43;5.40;;;0.00;99.90;;;;;;6179738;23;20217;-77
2021/11/11 04:09:00;;;;;;;8.50;5.73;;;-0.10;99.90;;;;;;6152227;23;20209;-80
2021/11/11 04:11:27;;;;;;;8.10;5.73;;;-0.20;99.90;;;;;;6178258;23;20138;-79
2021/11/11 04:13:53;;;;;;;8.87;6.13;;;-0.20;99.90;;;;;;6152693;23;20159;-77
2021/11/11 04:16:19;;;;;;;9.40;6.07;;;-0.10;99.90;;;;;;6152664;23;20565;-78
2021/11/11 04:18:44;;;;;;;9.13;6.20;;;-0.10;99.90;;;;;;6154371;23;20206;-80
2021/11/11 04:21:10;;;;;;;9.80;6.17;;;-0.20;99.90;;;;;;6179473;23;20163;-79
2021/11/11 04:23:36;;;;;;;8.23;5.90;;;-0.10;99.90;;;;;;6153356;23;20162;-79
2021/11/11 04:26:23;;;;;;;11.17;5.50;;;-0.10;99.90;;;;;;6153135;23;20455;-81
2021/11/11 04:29:01;;;;;;;8.13;5.90;;;-0.20;99.90;;;;;;6153068;23;20187;-78
2021/11/11 04:31:36;;;;;;;8.43;5.70;;;-0.20;99.90;;;;;;6178118;23;20187;-77
2021/11/11 04:34:06;;;;;;;9.03;6.23;;;-0.10;99.90;;;;;;6155388;23;20641;-77
2021/11/11 04:45:20;;;;;;;7.53;5.20;;;-0.30;99.90;;;;;;6179391;23;20186;-77
2021/11/11 04:50:44;;;;;;;8.10;5.90;;;-0.20;99.90;;;;;;6189400;23;20146;-77
2021/11/11 05:03:46;;;;;;;7.80;5.33;;;-0.40;99.90;;;;;;6192173;23;20571;-78
2021/11/11 05:06:12;;;;;;;8.50;5.70;;;-0.30;99.90;;;;;;6179708;23;20607;-76
2021/11/11 05:08:38;;;;;;;10.13;5.93;;;-0.40;99.90;;;;;;6178352;23;20233;-77
2021/11/11 05:11:04;;;;;;;8.70;6.03;;;-0.40;99.90;;;;;;6150385;23;20301;-78
2021/11/11 05:13:30;;;;;;;11.37;7.53;;;-0.30;99.90;;;;;;6179206;23;20595;-78
2021/11/11 05:15:56;;;;;;;13.07;7.17;;;-0.30;99.90;;;;;;6180691;23;20194;-79
2021/11/11 05:18:21;;;;;;;14.57;9.40;;;-0.30;99.90;;;;;;6154995;23;20186;-79
2021/11/11 05:20:47;;;;;;;16.57;9.60;;;-0.40;99.90;;;;;;6155650;23;20166;-79
2021/11/11 05:23:13;;;;;;;13.27;9.23;;;-0.40;99.90;;;;;;6154956;23;20509;-78
2021/11/11 05:25:39;;;;;;;11.97;8.07;;;-0.40;99.90;;;;;;6182160;23;20187;-80
2021/11/11 05:28:05;;;;;;;12.37;7.77;;;-0.30;99.90;;;;;;6155307;23;20163;-79
2021/11/11 05:30:32;;;;;;;12.83;8.03;;;-0.40;99.90;;;;;;6154975;23;20159;-78
2021/11/11 05:32:58;;;;;;;13.70;7.17;;;-0.50;99.90;;;;;;6155083;23;20166;-79
2021/11/11 05:35:23;;;;;;;11.43;7.47;;;-0.40;99.90;;;;;;6155007;23;20167;-79
2021/11/11 05:37:49;;;;;;;12.50;7.13;;;-0.30;99.90;;;;;;6155187;23;20163;-82
2021/11/11 05:40:17;;;;;;;12.03;7.40;;;-0.30;99.90;;;;;;6155395;23;20558;-78
2021/11/11 05:42:43;;;;;;;11.83;7.03;;;-0.30;99.90;;;;;;6182171;23;20167;-78
2021/11/11 05:45:09;;;;;;;11.80;7.43;;;-0.30;99.90;;;;;;6182293;23;20175;-79
2021/11/11 05:47:36;;;;;;;11.07;6.37;;;-0.40;99.90;;;;;;6158577;23;20220;-78
2021/11/11 05:50:02;;;;;;;11.70;7.07;;;-0.30;99.90;;;;;;6183785;23;20171;-81
2021/11/11 05:52:28;;;;;;;11.50;6.67;;;-0.40;99.90;;;;;;6183916;23;20162;-77
2021/11/11 05:54:53;;;;;;;9.77;6.27;;;-0.40;99.90;;;;;;6159054;23;20521;-76
2021/11/11 05:57:19;;;;;;;9.67;6.73;;;-0.30;99.90;;;;;;6158534;23;20166;-77
2021/11/11 05:59:44;;;;;;;9.53;6.37;;;-0.20;99.90;;;;;;6185458;23;20254;-79
2021/11/11 06:02:12;;;;;;;10.30;6.37;;;-0.30;99.90;;;;;;6186099;23;20248;-77
2021/11/11 06:04:38;;;;;;;10.23;5.73;;;-0.30;99.90;;;;;;6158984;23;20236;-79
2021/11/11 06:07:05;;;;;;;13.70;6.80;;;-0.30;99.90;;;;;;6185954;23;20239;-77
2021/11/11 06:09:30;;;;;;;9.70;6.87;;;-0.30;99.90;;;;;;6184476;23;20191;-79
2021/11/11 06:11:56;;;;;;;8.80;6.07;;;-0.30;99.90;;;;;;6157818;23;20258;-79
2021/11/11 06:14:22;;;;;;;10.50;6.83;;;-0.30;99.90;;;;;;6158082;23;20196;-76
2021/11/11 06:16:47;;;;;;;11.63;6.13;;;-0.40;99.90;;;;;;6184255;23;20178;-76
2021/11/11 06:19:14;;;;;;;12.03;7.07;;;-0.40;99.90;;;;;;6185655;23;20209;-80
2021/11/11 06:21:41;;;;;;;8.87;6.57;;;-0.40;99.90;;;;;;6184667;23;20165;-77
2021/11/11 06:24:07;;;;;;;13.83;6.10;;;-0.50;99.90;;;;;;6185393;23;20179;-80
2021/11/11 06:26:33;;;;;;;7.47;5.67;;;-0.50;99.90;;;;;;6158511;23;20162;-78
2021/11/11 06:29:00;;;;;;;9.80;6.33;;;-0.40;99.90;;;;;;6183264;23;20171;-78
2021/11/11 06:31:26;;;;;;;11.40;6.40;;;-0.30;99.90;;;;;;6183421;23;20525;-81
2021/11/11 06:33:52;;;;;;;9.93;6.20;;;-0.40;99.90;;;;;;6184596;23;20155;-78
2021/11/11 06:36:18;;;;;;;11.30;7.00;;;-0.40;99.90;;;;;;6157656;23;20158;-78
2021/11/11 06:38:44;;;;;;;12.63;6.47;;;-0.30;99.90;;;;;;6184367;23;20175;-77
2021/11/11 06:41:10;;;;;;;9.90;6.20;;;-0.30;99.90;;;;;;6156394;23;20169;-78
2021/11/11 06:43:37;;;;;;;10.10;6.97;;;-0.20;99.90;;;;;;6183176;23;20155;-80
2021/11/11 06:46:03;;;;;;;11.17;6.77;;;-0.20;99.90;;;;;;6181761;23;20242;-78
2021/11/11 06:48:29;;;;;;;9.83;7.00;;;-0.10;99.90;;;;;;6154864;23;20589;-78
2021/11/11 06:50:55;;;;;;;17.37;7.50;;;0.00;99.90;;;;;;6180918;23;20148;-78
2021/11/11 06:53:21;;;;;;;12.17;7.47;;;0.10;99.90;;;;;;6180916;23;20205;-77
2021/11/11 06:55:47;;;;;;;11.83;7.30;;;0.30;99.90;;;;;;6153717;23;20370;-78
2021/11/11 06:58:15;;;;;;;13.43;7.80;;;0.40;99.90;;;;;;6179978;23;20226;-78
2021/11/11 07:00:41;;;;;;;12.80;8.80;;;0.50;99.90;;;;;;6180143;23;20175;-79
2021/11/11 07:03:07;;;;;;;10.23;7.00;;;0.60;99.90;;;;;;6179446;23;20167;-78
2021/11/11 07:05:33;;;;;;;12.03;6.70;;;0.70;99.90;;;;;;6178754;23;20667;-78
2021/11/11 07:07:59;;;;;;;13.80;7.33;;;0.90;99.90;;;;;;6178978;23;20158;-77
2021/11/11 07:10:25;;;;;;;11.73;7.37;;;0.90;99.90;;;;;;6181455;23;20175;-78
2021/11/11 07:12:51;;;;;;;12.60;8.13;;;1.00;99.90;;;;;;6156347;23;20159;-79
2021/11/11 07:15:17;;;;;;;12.67;8.13;;;1.10;99.90;;;;;;6181656;23;20151;-77
2021/11/11 07:17:44;;;;;;;12.80;8.00;;;1.10;99.90;;;;;;6181017;23;20508;-77
2021/11/11 07:20:13;;;;;;;9.77;7.53;;;1.20;99.90;;;;;;6154422;23;20222;-78
2021/11/11 07:22:42;;;;;;;8.67;6.43;;;1.20;99.90;;;;;;6154320;23;20186;-76
2021/11/11 07:25:09;;;;;;;10.97;6.70;;;1.30;99.90;;;;;;6154167;23;20226;-80
2021/11/11 07:27:35;;;;;;;8.93;6.07;;;1.20;99.90;;;;;;6154140;23;20245;-79
2021/11/11 07:30:06;;;;;;;9.13;5.83;;;1.20;99.90;;;;;;6179878;23;20182;-80
2021/11/11 07:32:32;;;;;;;8.67;6.07;;;1.30;99.90;;;;;;6180018;23;20143;-79
2021/11/11 07:34:57;;;;;;;10.07;5.77;;;1.40;99.90;;;;;;6152769;23;20217;-79
2021/11/11 07:37:23;;;;;;;7.80;5.83;;;1.40;99.90;;;;;;6179151;23;20157;-79
2021/11/11 07:39:50;;;;;;;8.83;6.17;;;1.60;99.90;;;;;;6152101;23;20174;-77
2021/11/11 07:42:17;;;;;;;8.90;6.30;;;1.70;99.90;;;;;;6179026;23;20178;-79
2021/11/11 07:44:43;;;;;;;7.47;5.60;;;1.80;99.90;;;;;;6176898;23;20491;-76
2021/11/11 07:47:09;;;;;;;8.30;5.80;;;1.90;99.90;;;;;;6177149;23;20234;-77
2021/11/11 07:49:34;;;;;;;9.13;6.07;;;2.00;99.90;;;;;;6177966;23;20654;-77
2021/11/11 07:52:00;;;;;;;13.60;7.73;;;2.20;99.90;;;;;;6177278;23;20487;-77
2021/11/11 07:54:26;;;;;;;11.27;6.67;;;2.20;99.90;;;;;;6151748;23;20174;-77
2021/11/11 07:56:51;;;;;;;8.50;6.27;;;2.20;99.90;;;;;;6179736;23;20162;-77
2021/11/11 07:59:17;;;;;;;12.17;7.07;;;2.20;99.90;;;;;;6151508;23;20186;-77
2021/11/11 08:01:43;;;;;;;11.57;7.03;;;2.30;99.90;;;;;;6178293;23;20196;-78
2021/11/11 08:04:09;;;;;;;11.20;7.50;;;2.30;99.90;;;;;;6156638;23;20514;-79
2021/11/11 08:06:35;;;;;;;12.13;8.73;;;2.40;99.90;;;;;;6156814;23;20194;-78
2021/11/11 08:09:00;;;;;;;12.33;8.77;;;2.60;99.90;;;;;;6180473;23;20521;-78
2021/11/11 08:11:26;;;;;;;9.27;7.53;;;2.90;99.90;;;;;;6150749;23;20151;-77
2021/11/11 08:13:52;;;;;;;12.63;7.30;;;3.10;99.90;;;;;;6153496;23;20249;-78
2021/11/11 08:16:18;;;;;;;10.97;8.10;;;3.10;99.90;;;;;;6153536;23;20162;-79
2021/11/11 08:18:43;;;;;;;11.40;7.70;;;3.20;99.90;;;;;;6179166;23;20178;-79
2021/11/11 08:21:09;;;;;;;9.70;7.33;;;3.40;99.90;;;;;;6181532;23;20226;-80
2021/11/11 08:23:35;;;;;;;10.30;6.87;;;3.50;99.90;;;;;;6154882;23;20165;-77
2021/11/11 08:26:06;;;;;;;9.70;6.97;;;3.60;99.90;;;;;;6156353;23;20179;-80
2021/11/11 08:28:32;;;;;;;10.00;7.33;;;3.70;99.90;;;;;;6159416;23;20467;-78
2021/11/11 08:30:58;;;;;;;9.53;6.63;;;3.80;99.90;;;;;;6185840;23;20595;-77
2021/11/11 08:33:24;;;;;;;9.63;7.27;;;3.80;99.90;;;;;;6186824;23;20166;-79
2021/11/11 08:35:50;;;;;;;9.40;7.03;;;3.70;99.90;;;;;;6185676;23;20166;-79
2021/11/11 08:38:16;;;;;;;9.17;6.30;;;3.90;99.90;;;;;;6159198;23;20193;-79
2021/11/11 08:40:42;;;;;;;8.80;6.13;;;4.00;99.90;;;;;;6187036;23;20154;-79
2021/11/11 08:43:08;;;;;;;13.23;6.80;;;4.00;99.90;;;;;;6160096;23;20174;-80
2021/11/11 08:45:34;;;;;;;9.33;6.83;;;4.10;99.90;;;;;;6159130;23;20206;-80
2021/11/11 08:48:01;;;;;;;8.70;6.07;;;4.10;99.90;;;;;;6179878;23;20155;-79
2021/11/11 08:50:30;;;;;;;7.27;5.80;;;4.30;99.90;;;;;;6151684;23;20159;-78
2021/11/11 08:52:58;;;;;;;10.17;6.50;;;4.40;99.90;;;;;;6180907;23;20458;-80
2021/11/11 08:55:26;;;;;;;10.27;6.60;;;4.40;99.90;;;;;;6156776;23;20422;-78
2021/11/11 08:57:52;;;;;;;7.07;5.90;;;4.50;99.90;;;;;;6182577;23;20638;-80
2021/11/11 09:00:25;;;;;;;9.20;6.10;;;4.50;99.90;;;;;;6158872;23;20242;-79
2021/11/11 09:02:54;;;;;;;11.27;6.73;;;4.60;99.90;;;;;;6160046;23;20163;-80
2021/11/11 09:05:21;;;;;;;9.60;6.20;;;4.60;99.90;;;;;;6184340;23;20171;-80
2021/11/11 09:07:48;;;;;;;9.97;6.63;;;4.50;99.90;;;;;;6183539;23;20153;-80
2021/11/11 09:10:15;;;;;;;8.47;6.10;;;4.60;99.90;;;;;;6182648;23;20245;-76
2021/11/11 09:12:41;;;;;;;8.97;6.13;;;4.70;99.90;;;;;;6183384;23;20150;-79
2021/11/11 09:15:10;;;;;;;8.77;6.57;;;4.80;99.90;;;;;;6181861;23;20155;-80
2021/11/11 09:17:38;;;;;;;10.37;7.07;;;4.90;99.90;;;;;;6181738;23;20151;-79
2021/11/11 09:20:05;;;;;;;11.53;7.33;;;5.10;99.90;;;;;;6182089;23;20175;-80
2021/11/11 09:22:34;;;;;;;11.93;8.17;;;5.20;99.90;;;;;;6181773;23;20186;-78
2021/11/11 09:25:01;;;;;;;14.47;8.87;;;5.40;99.90;;;;;;6155987;23;20214;-78
2021/11/11 09:27:26;;;;;;;14.17;8.57;;;5.60;99.90;;;;;;6155180;23;20239;-78
2021/11/11 09:29:53;;;;;;;12.83;8.80;;;5.70;99.90;;;;;;6182074;23;20198;-78
2021/11/11 09:32:19;;;;;;;14.20;9.03;;;5.90;99.90;;;;;;6155054;23;20621;-77
2021/11/11 09:34:45;;;;;;;12.70;8.40;;;5.90;99.90;;;;;;6155746;23;20166;-78
2021/11/11 09:37:10;;;;;;;11.47;8.33;;;6.00;99.90;;;;;;6155833;23;20191;-79
2021/11/11 09:39:36;;;;;;;12.10;8.30;;;6.10;99.90;;;;;;6181854;23;20186;-78
2021/11/11 09:42:02;;;;;;;13.80;8.33;;;6.20;99.90;;;;;;6182738;23;20162;-78
2021/11/11 09:44:28;;;;;;;14.83;8.97;;;6.20;99.90;;;;;;6181397;23;20170;-78
2021/11/11 09:46:54;;;;;;;11.83;8.33;;;6.30;99.90;;;;;;6156309;23;20558;-78
2021/11/11 09:49:21;;;;;;;13.10;8.73;;;6.40;99.90;;;;;;6155201;23;20179;-79
2021/11/11 09:51:49;;;;;;;12.17;7.97;;;6.40;99.90;;;;;;6181966;23;20155;-78
2021/11/11 09:59:29;;;;;;;17.60;8.27;;;6.60;99.90;;;;;;6181174;23;20510;-78
2021/11/11 10:01:57;;;;;;;14.00;7.83;;;6.60;99.90;;;;;;6180293;23;20499;-79
2021/11/11 10:04:23;;;;;;;11.60;8.57;;;6.70;99.90;;;;;;6153888;23;20190;-78
2021/11/11 10:06:49;;;;;;;11.13;7.03;;;6.80;99.90;;;;;;6180342;23;20431;-80
2021/11/11 10:09:20;;;;;;;11.47;7.50;;;6.90;99.90;;;;;;6179917;23;20233;-80
2021/11/11 10:11:52;;;;;;;13.07;7.03;;;7.00;99.90;;;;;;6184041;23;20143;-78
2021/11/11 10:14:22;;;;;;;9.27;6.73;;;7.20;99.90;;;;;;6157343;23;20155;-78
2021/11/11 10:16:54;;;;;;;12.53;6.87;;;7.40;99.90;;;;;;6150636;23;20506;-79
2021/11/11 10:19:20;;;;;;;10.23;6.77;;;7.40;99.90;;;;;;6151426;23;20183;-79
2021/11/11 10:21:53;;;;;;;9.07;6.27;;;7.40;99.90;;;;;;6154818;23;20546;-80
2021/11/11 10:24:28;;;;;;;11.60;7.23;;;7.50;99.90;;;;;;6156374;23;20175;-80
2021/11/11 10:27:00;;;;;;;9.03;6.93;;;7.50;99.90;;;;;;6183687;23;20139;-79
2021/11/11 10:29:32;;;;;;;9.93;6.67;;;7.50;99.90;;;;;;6158386;23;20712;-80
2021/11/11 10:32:07;;;;;;;7.90;5.87;;;7.60;99.90;;;;;;6182254;23;20219;-77
2021/11/11 10:34:34;;;;;;;9.50;5.93;;;7.70;99.90;;;;;;6183493;23;20154;-78
2021/11/11 10:37:00;;;;;;;8.50;6.20;;;7.90;99.90;;;;;;6153845;23;20249;-79
2021/11/11 10:39:32;;;;;;;9.83;5.63;;;8.00;99.90;;;;;;6180606;23;20178;-79
2021/11/11 10:42:10;;;;;;;11.23;7.10;;;8.00;99.90;;;;;;6179708;23;20226;-80
2021/11/11 10:44:35;;;;;;;9.70;6.67;;;8.20;99.90;;;;;;6177431;23;20166;-77
2021/11/11 10:47:05;;;;;;;7.97;5.73;;;8.30;99.90;;;;;;6152171;23;20163;-79
2021/11/11 10:49:30;;;;;;;9.00;5.93;;;8.30;99.90;;;;;;6179353;23;20182;-80
2021/11/11 10:52:16;;;;;;;9.20;6.63;;;8.30;99.90;;;;;;6178495;23;20143;-80
2021/11/11 10:55:00;;;;;;;9.70;5.87;;;8.30;99.90;;;;;;6177811;23;20249;-79
2021/11/11 10:57:38;;;;;;;10.43;6.23;;;8.50;99.90;;;;;;6178384;23;20296;-78
2021/11/11 11:00:04;;;;;;;7.53;6.17;;;8.60;99.90;;;;;;6150851;23;20182;-80
2021/11/11 11:02:30;;;;;;;9.50;6.87;;;8.70;99.90;;;;;;6176275;23;20169;-80
2021/11/11 11:05:07;;;;;;;10.17;7.27;;;8.80;99.90;;;;;;6150282;23;20186;-78
2021/11/11 11:07:32;;;;;;;8.50;6.47;;;8.90;99.90;;;;;;6150556;23;20157;-79
2021/11/11 11:10:04;;;;;;;7.73;6.23;;;9.00;99.90;;;;;;6152189;23;20221;-79
2021/11/11 11:12:30;;;;;;;7.23;5.87;;;9.10;99.90;;;;;;6149895;23;20182;-79
2021/11/11 11:14:56;;;;;;;9.70;5.83;;;9.10;99.90;;;;;;6176746;23;20162;-82
2021/11/11 11:17:22;;;;;;;8.53;5.60;;;9.20;99.90;;;;;;6164285;23;20238;-81
2021/11/11 11:19:49;;;;;;;9.33;6.33;;;9.20;99.90;;;;;;6164111;23;20183;-81
2021/11/11 11:22:25;;;;;;;10.23;6.10;;;9.10;99.90;;;;;;6163958;23;20174;-79
2021/11/11 11:25:03;;;;;;;7.80;5.93;;;9.10;99.90;;;;;;6189655;23;20598;-81
2021/11/11 11:27:35;;;;;;;10.27;5.50;;;9.10;99.90;;;;;;6158744;23;20154;-81
2021/11/11 11:30:12;;;;;;;9.80;5.80;;;9.10;99.90;;;;;;6163686;23;20584;-79
2021/11/11 11:32:42;;;;;;;9.33;5.90;;;9.00;99.90;;;;;;6165063;23;20257;-79
2021/11/11 11:35:08;;;;;;;8.77;5.93;;;9.00;99.90;;;;;;6149480;23;20197;-79
2021/11/11 11:37:35;;;;;;;7.50;5.47;;;9.00;99.90;;;;;;6148848;23;20791;-81
2021/11/11 11:40:09;;;;;;;7.93;5.70;;;9.00;99.90;;;;;;6176017;23;20182;-79
2021/11/11 11:42:37;;;;;;;6.43;5.60;;;9.10;99.90;;;;;;6147013;23;20490;-79
2021/11/11 11:45:11;;;;;;;9.37;6.63;;;9.10;99.90;;;;;;6169019;23;20179;-79
2021/11/11 11:47:52;;;;;;;9.73;7.47;;;9.10;99.90;;;;;;6146557;23;20155;-79
2021/11/11 11:50:33;;;;;;;12.33;6.97;;;9.10;99.90;;;;;;6173154;23;20186;-79
2021/11/11 11:53:04;;;;;;;10.00;8.40;;;9.20;99.90;;;;;;6147146;23;20181;-79
2021/11/11 12:39:51;;;;;;;3.37;2.70;;;9.60;99.90;;;;;;6172246;23;20189;-80
2021/11/11 12:42:31;;;;;;;4.03;2.70;;;9.60;99.90;;;;;;6172161;23;20159;-79
2021/11/11 12:45:30;;;;;;;3.10;2.70;;;9.60;99.90;;;;;;6145626;23;20185;-79
2021/11/11 12:47:58;;;;;;;2.83;2.50;;;9.50;99.90;;;;;;6145116;23;20147;-79
2021/11/11 12:50:28;;;;;;;6.97;3.00;;;9.50;99.90;;;;;;6145828;23;20214;-80
2021/11/11 12:53:09;;;;;;;3.80;2.87;;;9.50;99.90;;;;;;6171826;23;20162;-80
2021/11/11 12:55:35;;;;;;;3.53;2.97;;;9.40;99.90;;;;;;6145561;23;20191;-79
2021/11/11 12:58:05;;;;;;;4.63;2.67;;;9.40;99.90;;;;;;6171865;23;20170;-79
2021/11/11 13:00:40;;;;;;;3.40;2.83;;;9.40;99.90;;;;;;6172809;23;20162;-79
2021/11/11 13:03:13;;;;;;;3.70;3.30;;;9.30;99.90;;;;;;6169392;23;20154;-83
2021/11/11 13:05:56;;;;;;;3.50;3.20;;;9.30;99.90;;;;;;6153788;23;20623;-78
2021/11/11 13:08:44;;;;;;;6.20;3.43;;;9.20;99.90;;;;;;6171730;23;20170;-81
2021/11/11 13:11:11;;;;;;;3.50;3.13;;;9.20;99.90;;;;;;6119933;23;20171;-80
2021/11/11 13:13:38;;;;;;;5.80;3.30;;;9.10;99.90;;;;;;6145502;23;20468;-79
2021/11/11 13:16:19;;;;;;;6.97;3.60;;;9.10;99.90;;;;;;6146127;23;20175;-81
2021/11/11 13:18:53;;;;;;;4.97;3.33;;;9.20;99.90;;;;;;6150653;23;20214;-78
2021/11/11 13:22:08;;;;;;;3.77;3.10;;;9.20;99.90;;;;;;6157511;23;20158;-79
2021/11/11 13:24:17;;;;;;;3.57;3.00;;;9.10;99.90;;;;;;6166604;23;20162;-80
2021/11/11 13:27:10;;;;;;;3.00;2.70;;;9.10;99.90;;;;;;6155155;23;20254;-79
2021/11/11 15:15:12;;;;;;;5.33;4.13;;;8.20;99.90;;;;;;6183976;23;20197;-78
2021/11/11 16:21:20;;;;;;;15.20;11.87;;;7.30;99.90;;;;;;6178660;23;20150;-78
2021/11/11 16:24:07;;;;;;;19.70;14.63;;;7.30;99.90;;;;;;6152619;23;20603;-79
2021/11/11 16:26:33;;;;;;;9.90;8.90;;;7.30;99.90;;;;;;6152352;23;20594;-78
2021/11/11 16:29:01;;;;;;;11.20;9.50;;;7.30;99.90;;;;;;6149123;23;20211;-79
2021/11/11 16:31:27;;;;;;;7.90;6.23;;;7.20;99.90;;;;;;6176237;23;20135;-80
2021/11/11 16:33:53;;;;;;;6.87;5.17;;;7.20;99.90;;;;;;6150276;23;20523;-79
2021/11/11 16:36:22;;;;;;;6.33;5.50;;;7.10;99.90;;;;;;6150300;23;20651;-80
2021/11/11 16:38:49;;;;;;;5.87;4.83;;;7.10;99.90;;;;;;6148416;23;20183;-81
2021/11/11 16:41:16;;;;;;;7.23;5.63;;;7.10;99.90;;;;;;6175852;23;20166;-80
2021/11/11 16:43:42;;;;;;;7.27;5.93;;;7.30;99.90;;;;;;6149612;23;20258;-79
2021/11/11 16:46:08;;;;;;;6.47;5.10;;;7.30;99.90;;;;;;6149458;23;20175;-78
2021/11/11 16:48:36;;;;;;;7.07;4.83;;;7.10;99.90;;;;;;6175762;23;20178;-79
2021/11/11 16:51:03;;;;;;;8.53;5.53;;;7.10;99.90;;;;;;6149397;23;20249;-79
2021/11/11 16:53:29;;;;;;;7.10;5.43;;;7.10;99.90;;;;;;6176366;23;20165;-79
2021/11/11 16:55:55;;;;;;;11.50;8.03;;;7.10;99.90;;;;;;6176255;23;20623;-79